Time;durP1;ratioP1;P1;durP2;ratioP2;P2;SDS_P1;SDS_P2;PMS_P1;PMS_P2;Temp;Humidity;BMP_temperature;BMP_pressure;BME280_temperature;BME280_humidity;BME280_pressure;Samples;Min_cycle;Max_cycle;Signal;HPM_P1;HPM_P2
2023/10/06 00:03:06;;;;;;;11.77;5.33;;;10.90;91.50;;;12.76;60.74;98682.31;5025338;28;20046;-61
2023/10/06 00:05:34;;;;;;;6.35;4.63;;;11.00;90.60;;;12.79;60.50;98687.38;5031653;28;20420;-61
2023/10/06 00:08:07;;;;;;;10.85;5.20;;;11.00;90.30;;;12.84;60.46;98684.22;5031235;28;20425;-61
2023/10/06 00:10:35;;;;;;;9.85;5.72;;;11.10;89.70;;;12.84;60.57;98692.25;5032466;28;20100;-61
2023/10/06 00:13:05;;;;;;;11.95;4.82;;;11.00;89.60;;;12.80;60.80;98690.88;5032452;28;20041;-61
2023/10/06 00:15:39;;;;;;;10.52;5.72;;;11.00;90.10;;;12.74;60.92;98686.97;5032397;28;20048;-61
2023/10/06 00:18:08;;;;;;;11.13;4.80;;;10.90;91.40;;;12.74;60.59;98689.63;5024919;28;20041;-61
2023/10/06 00:20:49;;;;;;;10.68;4.72;;;10.90;90.80;;;12.76;60.79;98689.50;5032326;28;20052;-61
2023/10/06 00:23:22;;;;;;;11.75;6.20;;;10.90;90.80;;;12.77;60.85;98685.81;5032223;28;20045;-61
2023/10/06 00:25:52;;;;;;;10.80;4.65;;;11.00;90.60;;;12.78;60.59;98688.34;5047404;28;20124;-61
2023/10/06 00:28:27;;;;;;;11.90;4.35;;;11.00;90.20;;;12.80;60.87;98688.19;5031986;28;20425;-61
2023/10/06 00:30:57;;;;;;;8.90;4.45;;;11.00;90.00;;;12.85;60.36;98691.25;5030178;28;20413;-62
2023/10/06 00:33:32;;;;;;;9.67;4.37;;;11.10;89.40;;;12.92;60.43;98694.16;5030745;28;20057;-61
2023/10/06 00:36:11;;;;;;;9.55;5.13;;;11.20;88.70;;;12.95;60.12;98691.19;5032019;28;20385;-61
2023/10/06 00:38:50;;;;;;;10.77;4.30;;;11.20;88.00;;;12.98;59.86;98693.56;5030526;28;20052;-62
2023/10/06 00:41:21;;;;;;;10.80;4.60;;;11.20;87.30;;;12.97;59.83;98679.38;5031048;28;20056;-61
2023/10/06 00:43:49;;;;;;;6.63;4.43;;;11.20;86.80;;;12.97;59.45;98682.03;5030570;28;20049;-61
2023/10/06 00:46:21;;;;;;;11.63;5.90;;;11.20;86.40;;;12.95;59.50;98673.31;5031755;28;20041;-61
2023/10/06 00:48:53;;;;;;;9.50;5.25;;;11.10;85.90;;;12.93;59.30;98674.44;5030506;28;20076;-61
2023/10/06 00:51:26;;;;;;;8.77;4.78;;;11.00;86.10;;;12.88;59.12;98676.75;5031128;28;20444;-61
2023/10/06 00:53:56;;;;;;;10.85;5.20;;;11.00;86.00;;;12.82;59.07;98670.19;5030321;28;20057;-61
2023/10/06 00:56:28;;;;;;;9.93;5.85;;;10.90;86.30;;;12.75;58.89;98661.91;5030975;28;20046;-61
2023/10/06 00:58:56;;;;;;;8.80;5.60;;;10.80;86.40;;;12.72;58.84;98666.72;5031420;28;22372;-61
2023/10/06 01:01:24;;;;;;;12.00;5.73;;;10.70;86.40;;;12.65;59.06;98663.81;5030236;28;20072;-61
2023/10/06 01:04:02;;;;;;;10.77;5.00;;;10.70;87.00;;;12.61;59.33;98670.44;5031669;28;20076;-61
2023/10/06 01:06:33;;;;;;;8.47;4.63;;;10.60;87.50;;;12.56;59.19;98665.56;5031169;28;20060;-61
2023/10/06 01:09:14;;;;;;;9.07;4.43;;;10.60;88.00;;;12.49;59.74;98661.78;5031543;28;20049;-61
2023/10/06 01:11:49;;;;;;;11.30;4.90;;;10.50;89.00;;;12.46;59.64;98659.41;5031315;28;20053;-61
2023/10/06 01:14:25;;;;;;;12.30;5.78;;;10.50;89.60;;;12.45;59.77;98660.41;5029963;28;20052;-61
2023/10/06 01:17:04;;;;;;;11.38;5.28;;;10.50;89.60;;;12.39;60.13;98653.81;5030852;28;20052;-61
2023/10/06 01:19:33;;;;;;;10.73;5.53;;;10.50;90.40;;;12.38;60.29;98651.28;5030094;28;20049;-61
2023/10/06 01:22:41;;;;;;;8.40;5.53;;;10.40;90.80;;;12.35;60.64;98655.13;5029902;28;20049;-61
2023/10/06 01:24:58;;;;;;;10.25;4.28;;;10.40;91.20;;;12.35;60.42;98651.59;5029969;28;20065;-61
2023/10/06 01:27:29;;;;;;;11.93;5.47;;;10.40;91.60;;;12.37;60.39;98649.63;5029651;28;20497;-61
2023/10/06 01:32:46;;;;;;;11.27;5.70;;;10.50;91.00;;;12.37;60.53;98655.81;5029529;28;20052;-61
2023/10/06 01:35:18;;;;;;;11.68;6.07;;;10.50;91.20;;;12.38;60.37;98652.13;5030153;28;20159;-61
2023/10/06 01:37:50;;;;;;;11.07;5.77;;;10.50;91.60;;;12.38;60.54;98659.31;5029694;28;20053;-61
2023/10/06 01:42:52;;;;;;;9.45;5.10;;;10.50;90.80;;;12.31;60.30;98650.19;5029772;28;20489;-61
2023/10/06 01:45:22;;;;;;;10.77;4.53;;;10.40;91.10;;;12.29;60.40;98655.72;5030979;28;20472;-61
2023/10/06 01:50:48;;;;;;;10.67;4.87;;;10.40;91.00;;;12.24;60.51;98638.44;5017889;28;20069;-60
2023/10/06 01:53:19;;;;;;;9.43;4.40;;;10.30;91.00;;;12.23;60.97;98650.09;5029573;28;20473;-61
2023/10/06 01:55:51;;;;;;;11.67;5.10;;;10.30;91.30;;;12.19;60.90;98649.56;5029145;28;20262;-61
2023/10/06 01:58:19;;;;;;;10.70;4.57;;;10.30;91.50;;;12.17;61.31;98648.84;5029102;28;20076;-61
2023/10/06 02:00:50;;;;;;;8.30;4.77;;;10.30;91.90;;;12.20;61.02;98648.56;5029718;28;20052;-61
2023/10/06 02:03:21;;;;;;;13.70;4.45;;;10.40;91.70;;;12.23;61.16;98637.59;5030972;28;20056;-61
2023/10/06 02:05:54;;;;;;;11.50;5.20;;;10.40;91.10;;;12.29;60.86;98638.81;5030493;28;20049;-61
2023/10/06 02:08:23;;;;;;;12.75;4.50;;;10.50;90.30;;;12.35;60.74;98643.59;5030817;28;20408;-61
2023/10/06 02:10:51;;;;;;;10.17;5.07;;;10.60;89.30;;;12.38;60.63;98637.94;5030724;28;20049;-61
2023/10/06 02:13:21;;;;;;;16.53;5.40;;;10.70;89.60;;;12.41;60.41;98640.34;5013174;28;20057;-61
2023/10/06 02:15:58;;;;;;;13.57;4.70;;;10.70;88.30;;;12.41;60.38;98625.13;5029207;28;20047;-62
2023/10/06 02:18:35;;;;;;;10.07;4.32;;;10.70;87.90;;;12.40;59.92;98631.47;5029357;28;20042;-62
2023/10/06 02:21:09;;;;;;;11.70;5.13;;;10.60;87.60;;;12.38;60.00;98624.59;5030505;28;20041;-61
2023/10/06 02:23:38;;;;;;;9.98;4.47;;;10.60;87.00;;;12.37;59.97;98625.59;5028958;28;20060;-61
2023/10/06 02:26:07;;;;;;;10.10;4.80;;;10.50;87.40;;;12.36;59.82;98622.06;5029100;28;20531;-61
2023/10/06 02:28:40;;;;;;;9.63;4.47;;;10.60;87.60;;;12.37;59.90;98622.94;5030216;28;20040;-61
2023/10/06 02:31:07;;;;;;;8.60;4.50;;;10.60;87.60;;;12.35;59.50;98619.56;5029296;28;20516;-61
2023/10/06 02:33:36;;;;;;;12.37;5.70;;;10.50;87.00;;;12.31;59.50;98618.16;5028856;28;20048;-61
2023/10/06 02:36:21;;;;;;;7.80;4.37;;;10.50;86.40;;;12.29;59.36;98620.13;5028679;28;20049;-61
2023/10/06 02:38:50;;;;;;;10.80;5.07;;;10.40;86.10;;;12.27;59.41;98627.44;5030416;28;20416;-60
2023/10/06 02:41:29;;;;;;;7.13;5.07;;;10.40;86.40;;;12.26;59.58;98625.78;5029117;28;20045;-61
2023/10/06 02:44:06;;;;;;;10.37;5.07;;;10.40;86.50;;;12.22;59.56;98622.56;5028807;28;20057;-61
2023/10/06 02:46:36;;;;;;;12.10;5.83;;;10.40;86.60;;;12.19;59.41;98628.19;5029861;28;20061;-61
2023/10/06 02:49:08;;;;;;;10.67;5.33;;;10.40;86.90;;;12.15;59.64;98626.81;5028802;28;20057;-61
2023/10/06 02:51:47;;;;;;;13.10;5.47;;;10.30;87.10;;;12.11;59.28;98626.25;5028853;28;20523;-61
2023/10/06 02:56:47;;;;;;;10.67;5.63;;;10.20;86.90;;;12.02;59.36;98628.00;5032238;28;20053;-61
2023/10/06 02:59:21;;;;;;;11.43;5.83;;;10.10;87.20;;;11.95;59.33;98626.88;5024915;28;20505;-61
2023/10/06 03:02:00;;;;;;;9.60;5.57;;;10.00;87.50;;;11.92;59.27;98627.19;5032408;28;20042;-61
2023/10/06 03:04:28;;;;;;;8.90;5.67;;;10.00;87.60;;;11.90;59.58;98626.47;5033991;28;20050;-61
2023/10/06 03:06:59;;;;;;;10.63;5.10;;;10.00;87.50;;;11.89;59.71;98630.16;5015862;28;20050;-61
2023/10/06 03:09:37;;;;;;;10.90;6.47;;;10.10;87.40;;;11.88;59.40;98625.75;5032547;28;20049;-61
2023/10/06 03:12:13;;;;;;;8.30;5.53;;;10.00;86.90;;;11.85;59.46;98638.56;5017078;28;20409;-61
2023/10/06 03:14:40;;;;;;;10.60;5.33;;;10.00;87.00;;;11.82;59.21;98635.19;5032232;28;20045;-61
2023/10/06 03:17:12;;;;;;;8.93;6.40;;;10.00;86.40;;;11.78;59.44;98624.94;5031664;28;20049;-61
2023/10/06 03:19:40;;;;;;;7.50;6.23;;;9.90;86.30;;;11.73;59.31;98624.53;5016256;28;20049;-61
2023/10/06 03:22:15;;;;;;;10.27;6.23;;;9.80;86.60;;;11.71;59.17;98629.16;5031995;28;20497;-61
2023/10/06 03:24:58;;;;;;;12.50;6.47;;;9.70;86.80;;;11.67;59.28;98627.78;5033483;28;20057;-61
2023/10/06 03:27:28;;;;;;;8.17;5.00;;;9.70;86.90;;;11.61;58.78;98626.53;5025025;28;20053;-61
2023/10/06 03:29:56;;;;;;;11.27;5.67;;;9.70;87.00;;;11.58;59.44;98625.00;5032266;28;20064;-61
2023/10/06 03:32:32;;;;;;;9.23;5.20;;;9.60;87.60;;;11.53;59.03;98619.25;5031890;28;20057;-61
2023/10/06 03:35:17;;;;;;;10.40;5.20;;;9.60;87.70;;;11.50;59.26;98616.88;5031075;28;20042;-61
2023/10/06 03:37:51;;;;;;;10.97;5.53;;;9.60;88.10;;;11.50;59.69;98624.03;5031875;28;20057;-61
2023/10/06 03:40:25;;;;;;;13.53;5.40;;;9.60;88.70;;;11.49;59.48;98627.69;5024590;28;20053;-61
2023/10/06 03:42:52;;;;;;;10.50;5.57;;;9.60;89.00;;;11.45;59.80;98624.44;5032844;28;20037;-60
2023/10/06 03:45:27;;;;;;;8.80;4.97;;;9.50;88.90;;;11.40;59.59;98624.91;5032930;28;20048;-60
2023/10/06 03:48:08;;;;;;;;;;;9.50;89.10;;;11.36;59.91;98617.31;5032318;28;20060;-61
2023/10/06 03:50:44;;;;;;;8.53;5.13;;;9.40;89.50;;;11.36;60.06;98615.50;5031689;28;19921;-61
2023/10/06 03:53:14;;;;;;;11.87;5.60;;;9.40;89.90;;;11.35;59.99;98615.63;5032054;28;20046;-61
2023/10/06 03:55:45;;;;;;;10.00;5.10;;;9.40;90.30;;;11.32;60.49;98608.78;5031250;28;20049;-61
2023/10/06 03:58:17;;;;;;;11.87;5.20;;;9.40;91.80;;;11.29;61.05;98606.38;5032329;28;20479;-61
2023/10/06 04:00:48;;;;;;;9.80;5.00;;;9.40;93.10;;;11.31;60.93;98607.09;5032758;28;20042;-61
2023/10/06 04:03:17;;;;;;;8.07;4.30;;;9.40;93.10;;;11.35;61.04;98603.16;5031693;28;20052;-61
2023/10/06 04:05:50;;;;;;;10.20;4.70;;;9.60;92.60;;;11.38;61.08;98602.88;5031224;28;20045;-61
2023/10/06 04:08:22;;;;;;;9.20;5.77;;;9.70;92.20;;;11.42;60.92;98611.44;5030976;28;20064;-61
2023/10/06 04:10:53;;;;;;;6.90;4.37;;;9.70;91.50;;;11.45;61.38;98607.63;5032846;28;20048;-61
2023/10/06 04:13:22;;;;;;;11.37;5.30;;;9.80;91.00;;;11.47;61.27;98606.47;5024499;28;20053;-61
2023/10/06 04:15:52;;;;;;;11.97;5.20;;;9.90;90.50;;;11.48;61.23;98610.00;5032912;28;20041;-61
2023/10/06 04:18:22;;;;;;;12.37;5.07;;;9.80;90.20;;;11.50;61.10;98616.88;5032121;28;20045;-61
2023/10/06 04:20:54;;;;;;;9.33;5.13;;;9.80;90.70;;;11.48;61.41;98605.53;5031184;28;20041;-61
2023/10/06 04:23:25;;;;;;;10.33;5.37;;;9.70;91.00;;;11.43;61.19;98603.25;5031650;28;20074;-61
2023/10/06 04:25:56;;;;;;;17.80;6.43;;;9.60;92.30;;;11.36;61.44;98598.66;5031214;28;20096;-61
2023/10/06 04:28:27;;;;;;;11.10;5.20;;;9.50;93.10;;;11.33;61.49;98593.63;5039015;28;20037;-61
2023/10/06 04:31:00;;;;;;;10.20;6.13;;;9.50;93.70;;;11.32;61.64;98599.91;5031191;28;20048;-61
2023/10/06 04:33:29;;;;;;;8.17;4.97;;;9.50;93.60;;;11.34;61.67;98592.63;5024789;28;20516;-61
2023/10/06 04:35:59;;;;;;;7.47;4.20;;;9.50;93.70;;;11.33;61.51;98597.13;5031933;28;20041;-61
2023/10/06 04:38:29;;;;;;;9.67;5.40;;;9.40;93.30;;;11.31;61.53;98592.91;5023999;28;20046;-61
2023/10/06 04:40:57;;;;;;;14.97;5.47;;;9.40;93.70;;;11.33;61.72;98594.44;5031270;28;20037;-61
2023/10/06 04:43:26;;;;;;;10.50;5.50;;;9.50;93.70;;;11.37;61.87;98595.84;5023891;28;20045;-61
2023/10/06 04:45:55;;;;;;;10.17;4.97;;;9.50;93.30;;;11.40;61.90;98594.72;5031719;28;20052;-61
2023/10/06 04:48:22;;;;;;;9.80;5.47;;;9.60;92.90;;;11.40;61.70;98586.72;5031473;28;20045;-61
2023/10/06 04:50:50;;;;;;;10.97;5.30;;;9.50;92.60;;;11.41;61.51;98597.22;5031810;28;20068;-61
2023/10/06 04:53:18;;;;;;;12.67;6.13;;;9.50;92.40;;;11.40;61.25;98598.22;5031581;28;20049;-61
2023/10/06 04:55:46;;;;;;;10.17;5.23;;;9.50;92.60;;;11.39;61.25;98593.88;5031582;28;20049;-61
2023/10/06 04:58:14;;;;;;;13.97;5.47;;;9.50;92.60;;;11.41;61.24;98586.56;5029784;28;20041;-61
2023/10/06 05:00:42;;;;;;;9.53;5.10;;;9.50;92.40;;;11.43;61.32;98589.09;5031528;28;20045;-61
2023/10/06 05:03:11;;;;;;;13.70;5.13;;;9.60;91.60;;;11.45;61.35;98588.97;5031563;28;20049;-62
2023/10/06 05:05:40;;;;;;;11.87;5.70;;;9.60;90.70;;;11.43;61.05;98587.25;5030258;28;20054;-61
2023/10/06 05:08:14;;;;;;;13.97;5.17;;;9.60;90.40;;;11.40;61.06;98576.91;5030980;28;20046;-61
2023/10/06 05:10:42;;;;;;;13.67;6.03;;;9.50;90.80;;;11.40;61.12;98581.41;5031080;28;20512;-61
2023/10/06 05:13:10;;;;;;;14.27;5.40;;;9.50;90.90;;;11.35;60.62;98581.81;5030115;28;20517;-61
2023/10/06 05:15:41;;;;;;;11.23;6.07;;;9.40;91.20;;;11.35;60.87;98588.97;5030991;28;20040;-61
2023/10/06 05:18:15;;;;;;;12.27;4.90;;;9.40;91.80;;;11.34;61.12;98592.63;5030671;28;20045;-63
2023/10/06 05:20:43;;;;;;;6.80;5.07;;;9.40;91.90;;;11.35;61.26;98586.31;5031456;28;20418;-64
2023/10/06 05:23:14;;;;;;;10.23;5.37;;;9.50;91.40;;;11.36;61.08;98587.97;5031187;28;20064;-63
2023/10/06 05:25:46;;;;;;;13.63;6.00;;;9.50;91.10;;;11.36;60.87;98598.66;5029904;28;20052;-63
2023/10/06 05:28:17;;;;;;;10.60;5.50;;;9.50;91.20;;;11.35;61.08;98599.66;5029469;28;20045;-63
2023/10/06 05:30:45;;;;;;;12.07;6.00;;;9.50;91.30;;;11.36;61.15;98593.31;5031112;28;20072;-61
2023/10/06 05:33:14;;;;;;;12.63;6.13;;;9.50;91.10;;;11.36;61.08;98598.66;5029919;28;20428;-64
2023/10/06 05:35:43;;;;;;;8.53;5.53;;;9.50;90.80;;;11.37;60.96;98603.00;5030819;28;20078;-62
2023/10/06 05:38:13;;;;;;;11.17;6.10;;;9.50;90.60;;;11.38;61.08;98608.19;5030414;28;20421;-60
2023/10/06 05:40:44;;;;;;;14.93;7.10;;;9.60;90.30;;;11.38;60.92;98607.34;5028969;28;20050;-60
2023/10/06 05:43:12;;;;;;;9.83;6.37;;;9.60;90.30;;;11.37;60.87;98603.84;5029759;28;20041;-62
2023/10/06 05:45:43;;;;;;;16.87;7.13;;;9.50;90.70;;;11.37;60.81;98611.00;5030889;28;20489;-62
2023/10/06 05:48:12;;;;;;;15.27;6.07;;;9.60;90.50;;;11.34;61.24;98617.47;5030360;28;20041;-61
2023/10/06 05:50:40;;;;;;;12.17;5.90;;;9.50;90.70;;;11.32;60.80;98621.25;5030895;28;20492;-61
2023/10/06 05:53:12;;;;;;;8.93;5.93;;;9.40;91.20;;;11.33;61.48;98622.94;5030682;28;20489;-61
2023/10/06 05:55:43;;;;;;;14.43;6.70;;;9.50;91.20;;;11.34;60.93;98628.13;5030676;28;20060;-62
2023/10/06 05:58:14;;;;;;;10.73;4.90;;;9.50;90.30;;;11.34;60.65;98622.81;5029068;28;20045;-63
2023/10/06 06:01:05;;;;;;;7.73;5.67;;;9.50;89.30;;;11.32;61.06;98619.44;5030767;28;20038;-61
2023/10/06 06:03:33;;;;;;;11.70;5.60;;;9.50;89.00;;;11.29;61.05;98616.22;5022983;28;20042;-62
2023/10/06 06:06:08;;;;;;;11.87;7.43;;;9.40;90.40;;;11.29;61.50;98621.53;5030584;28;20068;-62
2023/10/06 06:08:39;;;;;;;11.00;5.43;;;9.50;91.60;;;11.27;61.43;98623.50;5021722;28;20053;-62
2023/10/06 06:11:07;;;;;;;11.97;6.77;;;9.50;91.60;;;11.27;61.09;98623.50;5030417;28;20045;-60
2023/10/06 06:13:36;;;;;;;11.67;6.03;;;9.50;92.20;;;11.29;61.54;98624.22;5029375;28;20057;-63
2023/10/06 06:16:05;;;;;;;17.70;6.90;;;9.50;91.30;;;11.30;61.58;98624.06;5030397;28;20049;-63
2023/10/06 06:18:34;;;;;;;10.77;6.03;;;9.50;91.40;;;11.34;61.62;98627.28;5022016;28;20493;-62
2023/10/06 06:21:02;;;;;;;20.53;7.70;;;9.60;91.80;;;11.36;61.32;98631.50;5030579;28;20034;-62
2023/10/06 06:23:35;;;;;;;9.17;5.60;;;9.60;90.00;;;11.38;61.30;98636.66;5029142;28;20041;-63
2023/10/06 06:26:02;;;;;;;12.40;5.37;;;9.60;90.00;;;11.39;61.19;98633.03;5030306;28;20104;-62
2023/10/06 06:28:30;;;;;;;10.10;6.27;;;9.60;89.50;;;11.40;61.36;98638.22;5031245;28;20046;-61
2023/10/06 06:31:04;;;;;;;15.80;7.40;;;9.60;90.40;;;11.40;61.31;98643.56;5034529;28;20057;-63
2023/10/06 06:33:32;;;;;;;12.25;6.70;;;9.60;91.60;;;11.44;61.72;98636.13;5034162;28;20520;-63
2023/10/06 06:36:00;;;;;;;13.93;6.53;;;9.70;91.70;;;11.51;61.70;98642.53;5032921;28;20050;-62
2023/10/06 06:38:28;;;;;;;12.37;6.57;;;9.80;90.90;;;11.55;61.53;98640.44;5033846;28;20056;-63
2023/10/06 06:40:59;;;;;;;14.37;7.23;;;9.90;90.60;;;11.60;61.27;98646.19;5034446;28;20177;-63
2023/10/06 06:43:27;;;;;;;11.23;6.67;;;9.90;90.00;;;11.66;61.38;98650.13;5033742;28;20046;-63
2023/10/06 06:45:55;;;;;;;18.23;6.13;;;10.00;89.80;;;11.70;61.58;98651.50;5033988;28;20041;-62
2023/10/06 06:48:22;;;;;;;10.13;5.90;;;10.00;89.50;;;11.72;61.26;98647.69;5033690;28;20056;-65
2023/10/06 06:50:52;;;;;;;11.93;6.10;;;10.00;89.50;;;11.75;61.56;98642.09;5034102;28;20401;-65
2023/10/06 06:53:19;;;;;;;11.07;5.83;;;10.10;89.50;;;11.80;61.62;98646.97;5023277;28;20054;-65
2023/10/06 06:55:47;;;;;;;12.17;6.23;;;10.20;89.50;;;11.83;61.43;98638.69;5033722;28;20049;-64
2023/10/06 06:58:16;;;;;;;10.40;6.63;;;10.20;89.50;;;11.88;61.67;98646.25;5033632;28;20050;-63
2023/10/06 07:00:47;;;;;;;9.20;6.03;;;10.30;89.80;;;11.91;61.55;98641.50;5034358;28;20037;-61
2023/10/06 07:03:15;;;;;;;13.53;7.00;;;10.30;89.90;;;11.95;61.65;98652.75;5032445;28;20046;-61
2023/10/06 07:05:43;;;;;;;12.97;7.20;;;10.40;89.80;;;11.96;61.95;98651.72;5033605;28;20033;-61
2023/10/06 07:08:11;;;;;;;10.30;6.65;;;10.40;89.80;;;11.98;61.92;98645.28;5033456;28;20052;-61
2023/10/06 07:10:46;;;;;;;10.53;6.60;;;10.50;89.60;;;12.02;61.80;98637.84;5033810;28;20045;-60
2023/10/06 07:13:15;;;;;;;19.17;7.97;;;10.50;89.80;;;12.06;61.70;98636.56;5033554;28;20052;-62
2023/10/06 07:15:42;;;;;;;13.73;7.93;;;10.60;89.80;;;12.11;61.96;98642.28;5033731;28;20041;-64
2023/10/06 07:18:10;;;;;;;13.17;7.30;;;10.60;89.90;;;12.16;61.79;98648.03;5033090;28;20048;-63
2023/10/06 07:20:38;;;;;;;10.43;5.70;;;10.70;89.90;;;12.23;61.84;98650.09;5025274;28;20493;-63
2023/10/06 07:23:06;;;;;;;10.10;6.47;;;10.80;89.70;;;12.30;61.80;98646.69;5033514;28;20436;-62
2023/10/06 07:25:34;;;;;;;15.50;6.83;;;10.80;89.50;;;12.35;62.11;98651.59;5033069;28;20049;-63
2023/10/06 07:28:02;;;;;;;13.80;6.93;;;10.90;89.90;;;12.41;62.09;98653.69;5032941;28;20052;-62
2023/10/06 07:30:34;;;;;;;14.23;7.43;;;10.90;89.80;;;12.46;61.92;98651.38;5032125;28;20056;-63
2023/10/06 07:33:08;;;;;;;13.80;7.40;;;11.00;89.60;;;12.50;61.91;98647.44;5033344;28;20057;-63
2023/10/06 07:35:43;;;;;;;11.02;6.72;;;11.00;89.60;;;12.57;61.70;98659.22;5033216;28;20048;-63
2023/10/06 07:38:12;;;;;;;13.33;6.87;;;11.00;89.40;;;12.61;61.75;98657.09;5032558;28;20041;-63
2023/10/06 07:40:42;;;;;;;10.80;6.73;;;11.10;90.20;;;12.66;61.86;98653.94;5031236;28;20033;-63
2023/10/06 07:43:10;;;;;;;11.50;6.37;;;11.20;89.20;;;12.70;61.82;98655.34;5032730;28;20037;-63
2023/10/06 07:45:38;;;;;;;13.18;6.78;;;11.30;89.30;;;12.75;61.72;98666.41;5031739;28;20041;-63
2023/10/06 07:48:06;;;;;;;10.93;6.70;;;11.30;89.10;;;12.79;61.80;98657.97;5032494;28;20068;-62
2023/10/06 07:50:34;;;;;;;10.40;6.93;;;11.40;89.10;;;12.85;61.70;98667.19;5031629;28;20052;-63
2023/10/06 07:53:02;;;;;;;12.65;7.35;;;11.40;89.20;;;12.89;61.80;98665.91;5032785;28;20469;-62
2023/10/06 07:55:31;;;;;;;15.38;8.05;;;11.40;89.60;;;12.93;62.21;98661.09;5031244;28;20053;-63
2023/10/06 07:58:00;;;;;;;14.98;7.68;;;11.50;89.60;;;12.95;62.05;98664.44;5032426;28;20041;-63
2023/10/06 08:00:29;;;;;;;12.75;7.72;;;11.50;89.60;;;12.96;62.10;98658.97;5032778;28;20037;-63
2023/10/06 08:02:59;;;;;;;15.00;7.63;;;11.60;89.80;;;13.00;61.94;98657.66;5032689;28;20060;-63
2023/10/06 08:05:28;;;;;;;16.20;7.25;;;11.60;89.70;;;13.05;62.00;98649.19;5032628;28;20393;-63
2023/10/06 08:07:58;;;;;;;10.85;7.90;;;11.60;89.70;;;13.11;62.04;98650.44;5032314;28;20049;-63
2023/10/06 08:10:30;;;;;;;13.95;7.82;;;11.70;89.70;;;13.14;62.03;98642.94;5032502;28;20516;-62
2023/10/06 08:13:00;;;;;;;14.95;9.00;;;11.70;89.80;;;13.20;62.06;98642.31;5032211;28;20049;-62
2023/10/06 08:15:32;;;;;;;14.70;7.55;;;11.80;89.50;;;13.25;62.18;98643.69;5032318;28;20045;-62
2023/10/06 08:18:00;;;;;;;15.18;8.07;;;11.90;89.30;;;13.29;62.06;98653.09;5031120;28;20038;-63
2023/10/06 08:20:29;;;;;;;16.17;8.52;;;11.90;89.20;;;13.33;62.15;98658.00;5032696;28;20041;-63
2023/10/06 08:22:58;;;;;;;15.15;8.55;;;12.00;89.20;;;13.37;62.05;98653.19;5032287;28;20421;-62
2023/10/06 08:25:26;;;;;;;12.43;9.20;;;12.00;89.10;;;13.39;62.19;98651.19;5032207;28;20053;-62
2023/10/06 08:27:54;;;;;;;18.05;8.63;;;12.10;89.10;;;13.45;62.20;98663.09;5032078;28;20056;-63
2023/10/06 08:30:22;;;;;;;16.40;8.05;;;12.10;88.90;;;13.50;62.26;98669.69;5032056;28;20428;-63
2023/10/06 08:32:53;;;;;;;14.68;7.78;;;12.10;88.80;;;13.54;62.27;98675.56;5032202;28;20044;-63
2023/10/06 08:35:21;;;;;;;14.55;8.63;;;12.20;88.70;;;13.57;62.07;98667.22;5031360;28;20041;-63
2023/10/06 08:37:56;;;;;;;16.42;8.80;;;12.20;88.40;;;13.61;62.06;98671.28;5031798;28;20441;-63
2023/10/06 08:40:24;;;;;;;13.80;7.60;;;12.30;89.30;;;13.62;61.86;98666.75;5032016;28;20041;-64
2023/10/06 08:42:54;;;;;;;19.95;7.63;;;12.20;88.20;;;13.63;61.98;98657.72;5030010;28;20041;-65
2023/10/06 08:45:30;;;;;;;17.23;7.20;;;12.30;88.70;;;13.69;62.17;98662.47;5031664;28;20045;-64
2023/10/06 08:48:01;;;;;;;13.75;8.20;;;12.30;88.80;;;13.72;62.07;98652.28;5031674;28;20049;-64
2023/10/06 08:50:33;;;;;;;12.02;7.97;;;12.40;88.40;;;13.80;62.15;98659.53;5031478;28;20050;-64
2023/10/06 08:53:05;;;;;;;12.15;8.02;;;12.50;88.00;;;13.87;62.16;98662.44;5031402;28;20041;-64
2023/10/06 08:55:38;;;;;;;12.57;7.35;;;12.50;88.40;;;13.93;62.11;98661.78;5031569;28;20037;-64
2023/10/06 08:58:13;;;;;;;13.55;7.68;;;12.60;88.20;;;13.99;61.96;98661.16;5014236;28;20060;-64
2023/10/06 09:00:43;;;;;;;14.00;8.82;;;12.70;87.90;;;13.98;62.09;98670.19;5031339;28;20037;-64
2023/10/06 09:03:14;;;;;;;13.57;7.32;;;12.70;88.10;;;14.01;62.06;98672.53;5031565;28;20068;-64
2023/10/06 09:05:43;;;;;;;14.95;8.05;;;12.80;88.00;;;14.08;62.19;98664.72;5031172;28;20056;-63
2023/10/06 09:08:17;;;;;;;14.65;7.68;;;12.80;88.00;;;14.14;62.21;98666.78;5031397;28;20048;-64
2023/10/06 09:10:49;;;;;;;14.93;9.10;;;12.90;88.20;;;14.20;62.10;98667.97;5029939;28;20056;-64
2023/10/06 09:13:20;;;;;;;14.25;8.73;;;13.00;88.00;;;14.26;62.20;98661.97;5031426;28;20076;-64
2023/10/06 09:16:02;;;;;;;11.38;7.20;;;13.00;87.50;;;14.32;62.24;98659.47;5031509;28;20064;-64
2023/10/06 09:18:34;;;;;;;15.27;8.88;;;13.10;87.50;;;14.38;62.06;98661.53;5030731;28;20056;-64
2023/10/06 09:21:21;;;;;;;13.82;8.30;;;13.20;87.10;;;14.46;62.18;98655.38;5031072;28;20048;-64
2023/10/06 09:23:49;;;;;;;13.98;8.20;;;13.30;87.00;;;14.52;61.89;98656.56;5029603;28;20056;-64
2023/10/06 09:26:29;;;;;;;15.43;8.10;;;13.30;86.40;;;14.56;61.74;98650.75;5030991;28;20048;-63
2023/10/06 09:29:01;;;;;;;15.07;8.57;;;13.40;86.00;;;14.62;61.82;98648.41;5023957;28;20049;-64
2023/10/06 09:31:44;;;;;;;15.00;8.77;;;13.40;86.00;;;14.67;61.83;98638.88;5031069;28;20420;-64
2023/10/06 09:34:23;;;;;;;13.37;8.63;;;13.50;85.90;;;14.72;61.70;98628.53;5030270;28;20397;-64
2023/10/06 09:36:52;;;;;;;14.02;7.75;;;13.50;85.20;;;14.77;61.68;98628.03;5022559;28;20421;-64
2023/10/06 09:39:32;;;;;;;15.48;9.18;;;13.60;85.30;;;14.84;61.77;98634.41;5029809;28;20200;-64
2023/10/06 09:42:06;;;;;;;15.18;7.88;;;13.70;85.50;;;14.92;61.41;98636.28;5024332;28;20408;-65
2023/10/06 09:44:35;;;;;;;14.45;8.10;;;13.70;85.20;;;14.99;61.57;98628.41;5029724;28;20046;-64
2023/10/06 09:47:08;;;;;;;10.27;7.22;;;13.80;84.90;;;15.06;61.27;98622.22;5029308;28;20417;-64
2023/10/06 09:49:39;;;;;;;15.52;7.88;;;13.80;84.60;;;15.11;61.41;98624.41;5029673;28;20417;-65
2023/10/06 09:52:07;;;;;;;21.70;9.88;;;13.90;84.50;;;15.20;61.26;98630.59;5029007;28;20041;-65
2023/10/06 09:54:38;;;;;;;22.92;8.45;;;14.00;84.70;;;15.26;61.08;98625.41;5030610;28;20045;-65
2023/10/06 09:57:06;;;;;;;14.25;8.88;;;14.10;83.70;;;15.31;61.03;98619.53;5030522;28;20404;-65
2023/10/06 09:59:34;;;;;;;16.23;7.65;;;14.10;83.60;;;15.35;60.99;98616.38;5029359;28;20045;-65
2023/10/06 10:02:04;;;;;;;11.70;7.70;;;14.20;83.60;;;15.40;60.91;98618.53;5031054;28;20040;-65
2023/10/06 10:04:34;;;;;;;15.57;7.20;;;14.30;83.50;;;15.49;60.78;98622.03;5029491;28;20049;-64
2023/10/06 10:07:02;;;;;;;11.20;6.55;;;14.30;83.30;;;15.52;60.60;98619.03;5030121;28;20033;-65
2023/10/06 10:09:34;;;;;;;16.27;7.38;;;14.40;82.70;;;15.59;60.61;98617.34;5030674;28;20424;-65
2023/10/06 10:12:24;;;;;;;13.60;7.82;;;14.40;82.20;;;15.63;60.42;98616.00;5030588;28;20046;-65
2023/10/06 10:15:18;;;;;;;9.52;7.15;;;14.50;81.90;;;15.68;60.19;98616.34;5030133;28;20045;-65
2023/10/06 10:18:29;;;;;;;14.90;8.52;;;14.60;81.90;;;15.68;60.26;98624.41;5029095;28;20050;-65
2023/10/06 10:20:59;;;;;;;13.00;7.68;;;14.60;81.30;;;15.74;60.06;98612.16;5029384;28;20038;-65
2023/10/06 10:23:29;;;;;;;12.38;7.63;;;14.60;81.20;;;15.80;60.09;98610.63;5029349;28;20053;-65
2023/10/06 10:26:36;;;;;;;12.10;7.10;;;14.70;81.60;;;15.85;60.24;98613.66;5022626;28;20409;-65
2023/10/06 10:29:12;;;;;;;15.23;7.07;;;14.80;81.10;;;15.94;59.85;98607.25;5023198;28;20037;-65
2023/10/06 10:31:47;;;;;;;17.88;8.10;;;14.80;80.80;;;16.00;59.79;98609.25;5030235;28;20424;-65
2023/10/06 10:34:34;;;;;;;17.65;7.95;;;14.80;81.00;;;16.06;59.83;98605.03;5030627;28;20390;-65
2023/10/06 10:37:05;;;;;;;14.63;7.03;;;14.90;80.70;;;16.11;59.87;98595.44;5037958;28;20539;-66
2023/10/06 10:39:53;;;;;;;13.45;6.70;;;15.00;80.80;;;16.18;59.43;98592.91;5028810;28;20053;-66
2023/10/06 10:42:40;;;;;;;12.40;6.60;;;15.10;79.80;;;16.24;59.21;98604.81;5028448;28;20393;-66
2023/10/06 10:45:30;;;;;;;13.82;6.03;;;15.10;78.80;;;16.32;59.44;98596.69;5022308;28;20037;-65
2023/10/06 10:47:59;;;;;;;13.38;7.07;;;15.20;79.30;;;16.40;59.43;98590.44;5020800;28;20493;-66